LFMV/AVN METAR and TAF weather

Enter ICAO airport designator
Station Type Date Time Source
LFMV METAR 2020/09/23 19:30 UTC NOAA

LFMV 231930Z AUTO 18003KT 150V220 CAVOK 19/16 Q1011 TEMPO 3000 BR


Station Type Date Time Source
LFMV Decoded METAR 2020/09/23 19:30 UTC NOAA

Station name not available
Sep 23, 2020 - 03:30 PM EDT / 2020.09.23 1930 UTC
Wind: from the S (180 degrees) at 3 MPH (3 KT) (direction variable):0
Visibility: greater than 7 mile(s):0
Temperature: 66 F (19 C)
Dew Point: 60 F (16 C)
Relative Humidity: 82%
Pressure (altimeter): 29.85 in. Hg (1011 hPa)
ob: LFMV 231930Z AUTO 18003KT 150V220 CAVOK 19/16 Q1011 TEMPO 3000 BR
cycle: 19

Station Type Date Time Source
LFMV TAF 2020/09/23 15:00 UTC NOAA

TAF LFMV 231400Z 2315/2415 22005KT CAVOK
TEMPO 2321/2401 3000 BR
TEMPO 2401/2409 4000 SHRA BKN060TCU

Example: see airport list